Airfield :
LOGIN :

Register | Disclaimer

   EN    FR    IT 

 










Legend :    VFR   Marginal VFR   IFR   Intensive IFR   Very Intensive IFR
Visi :
Ceiling :
>= 8 km
>= 3000ft
5 to 8 km
1000 to 3000 ft
1500m to 5 km
500 to 1000 ft
800 to 1500m
200 to 500 ft
< 800m
< 200 ft
Symbols :   Thunderstorms  Fog  Heavy snow  Heavy precipitations  Wind > 20 kt
SIGMETs :     Misc.  Thunderstorms  Icing  Turbulence  Mountain Waves  Volcanic Ashes






- Airport Elevation : 231 ft
- IATA code : WTN


EGXW - RAF Waddington

CURRENT METAR :
  • 271450Z 29017KT 9999 FEW033 07/M01 Q1002 NOSIG RMK BLU BLU

EXPIRED METARs :
  • 271420Z 31017KT 9999 FEW032 06/M02 Q1001 NOSIG RMK BLU BLU
  • 271350Z 31015KT 9999 FEW032 07/M01 Q1001 NOSIG RMK BLU BLU
  • 271320Z 31016KT 9999 FEW028 07/M01 Q1000 NOSIG RMK BLU BLU
  • 271250Z 31015KT 9999 FEW028 06/M01 Q1000 NOSIG RMK BLU BLU
  • 271221Z 30014KT 9999 FEW024 05/M01 Q0999 NOSIG RMK BLU BLU

TAF TAF EGXW
Valid from the 27 at 15:00 until the 28 at 09:00 UTC


271318Z 2715/2809 31017G27KT 9999 FEW025
BECMG 2717/2719 27013KT
BECMG 2800/2803 20010KT



MET'MAP, your aeronautical weather chart ! - Copyright ORBIFLY December 2007 - Disclaimer

ORBIFLY MET'MAP TEAM :

Programming & Development : Alexandra Zaïnal
Concept & original design : Baudouin d'Aumeries
Assistance for programming : Marc-Olivier Méhu
Technical & hardware support : Manuel Goepfert

Contact : metmap@orbifly.com




SOURCES & CREDITS :

   NOAA